sensor_id;sensor_type;location;lat;lon;timestamp;P1;durP1;ratioP1;P2;durP2;ratioP2
72464;SDS011;60471;52.150;4.508;2023-06-04T00:00:28;7.25;;;2.10;;
72464;SDS011;60471;52.150;4.508;2023-06-04T00:02:55;10.20;;;2.35;;
72464;SDS011;60471;52.150;4.508;2023-06-04T00:05:21;8.80;;;2.25;;
72464;SDS011;60471;52.150;4.508;2023-06-04T00:07:51;9.25;;;2.30;;
72464;SDS011;60471;52.150;4.508;2023-06-04T00:10:18;8.18;;;1.90;;
72464;SDS011;60471;52.150;4.508;2023-06-04T00:12:44;7.00;;;2.05;;
72464;SDS011;60471;52.150;4.508;2023-06-04T00:15:11;11.52;;;2.67;;
72464;SDS011;60471;52.150;4.508;2023-06-04T00:17:39;9.38;;;2.35;;
72464;SDS011;60471;52.150;4.508;2023-06-04T00:20:06;7.25;;;2.05;;
72464;SDS011;60471;52.150;4.508;2023-06-04T00:22:33;8.82;;;2.28;;
72464;SDS011;60471;52.150;4.508;2023-06-04T00:24:59;8.05;;;2.15;;
72464;SDS011;60471;52.150;4.508;2023-06-04T00:27:25;7.05;;;2.03;;
72464;SDS011;60471;52.150;4.508;2023-06-04T00:29:51;8.05;;;2.53;;
72464;SDS011;60471;52.150;4.508;2023-06-04T00:32:17;7.18;;;2.05;;
72464;SDS011;60471;52.150;4.508;2023-06-04T00:34:49;7.28;;;2.13;;
72464;SDS011;60471;52.150;4.508;2023-06-04T00:37:24;6.80;;;1.92;;
72464;SDS011;60471;52.150;4.508;2023-06-04T00:39:51;7.20;;;1.80;;
72464;SDS011;60471;52.150;4.508;2023-06-04T00:42:17;8.50;;;2.42;;
72464;SDS011;60471;52.150;4.508;2023-06-04T00:44:44;7.28;;;2.17;;
72464;SDS011;60471;52.150;4.508;2023-06-04T00:47:14;7.38;;;2.30;;
72464;SDS011;60471;52.150;4.508;2023-06-04T00:49:43;7.55;;;2.03;;
72464;SDS011;60471;52.150;4.508;2023-06-04T00:52:11;7.80;;;2.28;;
72464;SDS011;60471;52.150;4.508;2023-06-04T00:54:41;6.55;;;1.98;;
72464;SDS011;60471;52.150;4.508;2023-06-04T00:57:08;9.35;;;2.20;;
72464;SDS011;60471;52.150;4.508;2023-06-04T00:59:37;7.85;;;2.33;;
72464;SDS011;60471;52.150;4.508;2023-06-04T01:02:17;9.23;;;1.90;;
72464;SDS011;60471;52.150;4.508;2023-06-04T01:05:10;8.77;;;2.42;;
72464;SDS011;60471;52.150;4.508;2023-06-04T01:07:47;10.18;;;2.70;;
72464;SDS011;60471;52.150;4.508;2023-06-04T01:10:15;9.45;;;2.33;;
72464;SDS011;60471;52.150;4.508;2023-06-04T01:12:41;6.00;;;2.10;;
72464;SDS011;60471;52.150;4.508;2023-06-04T01:15:09;7.38;;;2.08;;
72464;SDS011;60471;52.150;4.508;2023-06-04T01:17:37;6.72;;;2.20;;
72464;SDS011;60471;52.150;4.508;2023-06-04T01:20:14;8.43;;;1.83;;
72464;SDS011;60471;52.150;4.508;2023-06-04T01:28:07;7.70;;;2.00;;
72464;SDS011;60471;52.150;4.508;2023-06-04T01:30:37;6.68;;;2.22;;
72464;SDS011;60471;52.150;4.508;2023-06-04T01:33:09;7.40;;;2.10;;
72464;SDS011;60471;52.150;4.508;2023-06-04T01:35:44;7.28;;;1.92;;
72464;SDS011;60471;52.150;4.508;2023-06-04T01:38:11;7.55;;;2.25;;
72464;SDS011;60471;52.150;4.508;2023-06-04T01:40:37;10.93;;;2.47;;
72464;SDS011;60471;52.150;4.508;2023-06-04T01:43:03;8.32;;;2.17;;
72464;SDS011;60471;52.150;4.508;2023-06-04T01:45:30;7.60;;;2.08;;
72464;SDS011;60471;52.150;4.508;2023-06-04T01:47:56;8.60;;;2.10;;
72464;SDS011;60471;52.150;4.508;2023-06-04T01:50:23;6.88;;;2.08;;
72464;SDS011;60471;52.150;4.508;2023-06-04T01:52:49;7.88;;;2.60;;
72464;SDS011;60471;52.150;4.508;2023-06-04T01:55:16;7.57;;;2.03;;
72464;SDS011;60471;52.150;4.508;2023-06-04T01:57:43;8.07;;;1.80;;
72464;SDS011;60471;52.150;4.508;2023-06-04T02:00:11;10.13;;;2.20;;
72464;SDS011;60471;52.150;4.508;2023-06-04T02:02:39;8.48;;;2.03;;
72464;SDS011;60471;52.150;4.508;2023-06-04T02:05:09;6.50;;;1.75;;
72464;SDS011;60471;52.150;4.508;2023-06-04T02:07:36;7.43;;;1.85;;
72464;SDS011;60471;52.150;4.508;2023-06-04T02:12:38;7.15;;;1.77;;
72464;SDS011;60471;52.150;4.508;2023-06-04T02:15:09;6.47;;;1.90;;
72464;SDS011;60471;52.150;4.508;2023-06-04T02:17:36;7.22;;;2.10;;
72464;SDS011;60471;52.150;4.508;2023-06-04T02:20:05;7.38;;;1.77;;
72464;SDS011;60471;52.150;4.508;2023-06-04T02:22:35;9.32;;;1.80;;
72464;SDS011;60471;52.150;4.508;2023-06-04T02:25:01;7.35;;;1.90;;
72464;SDS011;60471;52.150;4.508;2023-06-04T02:27:28;7.10;;;1.90;;
72464;SDS011;60471;52.150;4.508;2023-06-04T02:29:54;7.43;;;2.08;;
72464;SDS011;60471;52.150;4.508;2023-06-04T02:32:20;10.07;;;2.08;;
72464;SDS011;60471;52.150;4.508;2023-06-04T02:34:46;10.07;;;2.00;;
72464;SDS011;60471;52.150;4.508;2023-06-04T02:37:13;5.93;;;1.60;;
72464;SDS011;60471;52.150;4.508;2023-06-04T02:39:39;7.45;;;2.00;;
72464;SDS011;60471;52.150;4.508;2023-06-04T02:42:05;7.53;;;2.00;;
72464;SDS011;60471;52.150;4.508;2023-06-04T02:44:32;8.30;;;1.98;;
72464;SDS011;60471;52.150;4.508;2023-06-04T02:46:58;9.95;;;1.92;;
72464;SDS011;60471;52.150;4.508;2023-06-04T02:49:24;7.30;;;1.92;;
72464;SDS011;60471;52.150;4.508;2023-06-04T02:51:50;9.05;;;2.15;;
72464;SDS011;60471;52.150;4.508;2023-06-04T02:54:17;6.90;;;1.80;;
72464;SDS011;60471;52.150;4.508;2023-06-04T02:56:43;6.60;;;2.00;;
72464;SDS011;60471;52.150;4.508;2023-06-04T02:59:10;6.78;;;1.90;;
72464;SDS011;60471;52.150;4.508;2023-06-04T03:01:36;8.82;;;2.10;;
72464;SDS011;60471;52.150;4.508;2023-06-04T03:04:02;7.68;;;1.80;;
72464;SDS011;60471;52.150;4.508;2023-06-04T03:06:30;9.90;;;2.03;;
72464;SDS011;60471;52.150;4.508;2023-06-04T03:09:00;7.82;;;1.95;;
72464;SDS011;60471;52.150;4.508;2023-06-04T03:11:27;6.80;;;1.95;;
72464;SDS011;60471;52.150;4.508;2023-06-04T03:13:53;8.48;;;2.00;;
72464;SDS011;60471;52.150;4.508;2023-06-04T03:16:20;8.07;;;2.05;;
72464;SDS011;60471;52.150;4.508;2023-06-04T03:18:46;6.63;;;1.90;;
72464;SDS011;60471;52.150;4.508;2023-06-04T03:21:13;9.65;;;2.22;;
72464;SDS011;60471;52.150;4.508;2023-06-04T03:23:39;6.97;;;1.92;;
72464;SDS011;60471;52.150;4.508;2023-06-04T03:26:06;7.05;;;1.80;;
72464;SDS011;60471;52.150;4.508;2023-06-04T03:28:33;8.07;;;1.98;;
72464;SDS011;60471;52.150;4.508;2023-06-04T03:30:59;6.97;;;2.10;;
72464;SDS011;60471;52.150;4.508;2023-06-04T03:33:25;6.53;;;1.90;;
72464;SDS011;60471;52.150;4.508;2023-06-04T03:35:52;8.52;;;2.30;;
72464;SDS011;60471;52.150;4.508;2023-06-04T03:38:18;10.15;;;2.28;;
72464;SDS011;60471;52.150;4.508;2023-06-04T03:40:45;7.90;;;2.10;;
72464;SDS011;60471;52.150;4.508;2023-06-04T03:43:12;6.80;;;1.85;;
72464;SDS011;60471;52.150;4.508;2023-06-04T03:45:38;7.78;;;1.77;;
72464;SDS011;60471;52.150;4.508;2023-06-04T03:48:04;9.25;;;2.22;;
72464;SDS011;60471;52.150;4.508;2023-06-04T03:50:30;10.27;;;2.08;;
72464;SDS011;60471;52.150;4.508;2023-06-04T03:52:57;6.35;;;2.15;;
72464;SDS011;60471;52.150;4.508;2023-06-04T03:55:23;10.77;;;2.30;;
72464;SDS011;60471;52.150;4.508;2023-06-04T03:57:50;8.98;;;1.90;;
72464;SDS011;60471;52.150;4.508;2023-06-04T04:00:16;6.78;;;2.30;;
72464;SDS011;60471;52.150;4.508;2023-06-04T04:02:44;8.02;;;1.92;;
72464;SDS011;60471;52.150;4.508;2023-06-04T04:05:11;6.10;;;1.70;;
72464;SDS011;60471;52.150;4.508;2023-06-04T04:07:37;7.72;;;2.10;;
72464;SDS011;60471;52.150;4.508;2023-06-04T04:10:03;7.20;;;2.13;;
72464;SDS011;60471;52.150;4.508;2023-06-04T04:12:31;8.38;;;2.55;;
72464;SDS011;60471;52.150;4.508;2023-06-04T04:14:57;8.27;;;2.10;;
72464;SDS011;60471;52.150;4.508;2023-06-04T04:17:24;6.95;;;2.20;;
72464;SDS011;60471;52.150;4.508;2023-06-04T04:19:51;9.95;;;2.33;;
72464;SDS011;60471;52.150;4.508;2023-06-04T04:22:17;12.10;;;2.20;;
72464;SDS011;60471;52.150;4.508;2023-06-04T04:24:44;9.15;;;2.72;;
72464;SDS011;60471;52.150;4.508;2023-06-04T04:27:10;7.95;;;2.50;;
72464;SDS011;60471;52.150;4.508;2023-06-04T04:29:41;8.32;;;2.65;;
72464;SDS011;60471;52.150;4.508;2023-06-04T04:32:09;9.25;;;2.47;;
72464;SDS011;60471;52.150;4.508;2023-06-04T04:34:38;9.00;;;2.40;;
72464;SDS011;60471;52.150;4.508;2023-06-04T04:37:17;9.15;;;2.47;;
72464;SDS011;60471;52.150;4.508;2023-06-04T04:39:46;8.30;;;2.58;;
72464;SDS011;60471;52.150;4.508;2023-06-04T04:42:13;8.13;;;2.88;;
72464;SDS011;60471;52.150;4.508;2023-06-04T04:44:39;8.07;;;2.72;;
72464;SDS011;60471;52.150;4.508;2023-06-04T04:47:05;10.13;;;3.15;;
72464;SDS011;60471;52.150;4.508;2023-06-04T04:49:31;10.95;;;3.00;;
72464;SDS011;60471;52.150;4.508;2023-06-04T04:51:58;8.32;;;3.28;;
72464;SDS011;60471;52.150;4.508;2023-06-04T04:54:24;9.48;;;3.15;;
72464;SDS011;60471;52.150;4.508;2023-06-04T04:56:50;9.55;;;3.47;;
72464;SDS011;60471;52.150;4.508;2023-06-04T04:59:16;10.57;;;3.70;;
72464;SDS011;60471;52.150;4.508;2023-06-04T05:01:42;11.10;;;3.72;;
72464;SDS011;60471;52.150;4.508;2023-06-04T05:04:09;9.70;;;3.28;;
72464;SDS011;60471;52.150;4.508;2023-06-04T05:06:35;14.57;;;3.65;;
72464;SDS011;60471;52.150;4.508;2023-06-04T05:09:03;11.73;;;4.68;;
72464;SDS011;60471;52.150;4.508;2023-06-04T05:11:29;10.80;;;3.85;;
72464;SDS011;60471;52.150;4.508;2023-06-04T05:13:55;10.05;;;3.70;;
72464;SDS011;60471;52.150;4.508;2023-06-04T05:16:22;13.60;;;4.07;;
72464;SDS011;60471;52.150;4.508;2023-06-04T05:18:48;10.45;;;4.03;;
72464;SDS011;60471;52.150;4.508;2023-06-04T05:21:17;11.13;;;3.55;;
72464;SDS011;60471;52.150;4.508;2023-06-04T05:23:43;13.75;;;3.95;;
72464;SDS011;60471;52.150;4.508;2023-06-04T05:26:13;13.20;;;3.97;;
72464;SDS011;60471;52.150;4.508;2023-06-04T05:28:40;12.27;;;3.95;;
72464;SDS011;60471;52.150;4.508;2023-06-04T05:31:09;12.90;;;4.25;;
72464;SDS011;60471;52.150;4.508;2023-06-04T05:33:38;12.77;;;4.10;;
72464;SDS011;60471;52.150;4.508;2023-06-04T05:36:07;10.52;;;3.80;;
72464;SDS011;60471;52.150;4.508;2023-06-04T05:38:33;11.00;;;4.10;;
72464;SDS011;60471;52.150;4.508;2023-06-04T05:41:01;11.43;;;4.03;;
72464;SDS011;60471;52.150;4.508;2023-06-04T05:43:28;12.68;;;4.32;;
72464;SDS011;60471;52.150;4.508;2023-06-04T05:45:54;12.90;;;4.18;;
72464;SDS011;60471;52.150;4.508;2023-06-04T05:48:20;12.35;;;4.18;;
72464;SDS011;60471;52.150;4.508;2023-06-04T05:50:47;11.98;;;4.00;;
72464;SDS011;60471;52.150;4.508;2023-06-04T05:53:13;12.10;;;4.20;;
72464;SDS011;60471;52.150;4.508;2023-06-04T05:55:39;15.10;;;4.18;;
72464;SDS011;60471;52.150;4.508;2023-06-04T05:58:05;11.10;;;3.63;;
72464;SDS011;60471;52.150;4.508;2023-06-04T06:00:32;9.98;;;3.83;;
72464;SDS011;60471;52.150;4.508;2023-06-04T06:02:58;13.55;;;3.90;;
72464;SDS011;60471;52.150;4.508;2023-06-04T06:05:24;15.05;;;4.07;;
72464;SDS011;60471;52.150;4.508;2023-06-04T06:07:50;12.40;;;3.65;;
72464;SDS011;60471;52.150;4.508;2023-06-04T06:10:17;9.88;;;3.85;;
72464;SDS011;60471;52.150;4.508;2023-06-04T06:12:44;13.00;;;4.18;;
72464;SDS011;60471;52.150;4.508;2023-06-04T06:15:10;10.65;;;3.72;;
72464;SDS011;60471;52.150;4.508;2023-06-04T06:17:37;10.93;;;3.50;;
72464;SDS011;60471;52.150;4.508;2023-06-04T06:20:04;11.27;;;3.42;;
72464;SDS011;60471;52.150;4.508;2023-06-04T06:22:34;14.23;;;3.97;;
72464;SDS011;60471;52.150;4.508;2023-06-04T06:25:02;9.77;;;3.47;;
72464;SDS011;60471;52.150;4.508;2023-06-04T06:27:30;12.02;;;3.30;;
72464;SDS011;60471;52.150;4.508;2023-06-04T06:29:57;11.30;;;2.92;;
72464;SDS011;60471;52.150;4.508;2023-06-04T06:32:23;10.68;;;2.72;;
72464;SDS011;60471;52.150;4.508;2023-06-04T06:34:49;10.48;;;2.80;;
72464;SDS011;60471;52.150;4.508;2023-06-04T06:37:15;8.50;;;2.40;;
72464;SDS011;60471;52.150;4.508;2023-06-04T06:39:41;10.93;;;2.40;;
72464;SDS011;60471;52.150;4.508;2023-06-04T06:42:08;9.20;;;2.30;;
72464;SDS011;60471;52.150;4.508;2023-06-04T06:44:34;7.53;;;1.77;;
72464;SDS011;60471;52.150;4.508;2023-06-04T06:47:00;7.25;;;1.90;;
72464;SDS011;60471;52.150;4.508;2023-06-04T06:49:27;7.63;;;2.13;;
72464;SDS011;60471;52.150;4.508;2023-06-04T06:51:53;12.27;;;2.53;;
72464;SDS011;60471;52.150;4.508;2023-06-04T06:54:19;7.68;;;1.90;;
72464;SDS011;60471;52.150;4.508;2023-06-04T06:56:47;8.02;;;2.17;;
72464;SDS011;60471;52.150;4.508;2023-06-04T06:59:16;12.70;;;2.72;;
72464;SDS011;60471;52.150;4.508;2023-06-04T07:01:42;11.07;;;2.45;;
72464;SDS011;60471;52.150;4.508;2023-06-04T07:04:08;11.32;;;1.83;;
72464;SDS011;60471;52.150;4.508;2023-06-04T07:06:35;11.10;;;2.13;;
72464;SDS011;60471;52.150;4.508;2023-06-04T07:09:02;9.38;;;2.33;;
72464;SDS011;60471;52.150;4.508;2023-06-04T07:11:29;11.48;;;2.15;;
72464;SDS011;60471;52.150;4.508;2023-06-04T07:13:56;9.23;;;2.05;;
72464;SDS011;60471;52.150;4.508;2023-06-04T07:16:22;9.27;;;1.98;;
72464;SDS011;60471;52.150;4.508;2023-06-04T07:18:48;9.80;;;2.28;;
72464;SDS011;60471;52.150;4.508;2023-06-04T07:21:16;7.80;;;1.60;;
72464;SDS011;60471;52.150;4.508;2023-06-04T07:23:45;10.85;;;1.77;;
72464;SDS011;60471;52.150;4.508;2023-06-04T07:26:15;9.30;;;1.98;;
72464;SDS011;60471;52.150;4.508;2023-06-04T07:28:42;6.75;;;1.70;;
72464;SDS011;60471;52.150;4.508;2023-06-04T07:31:09;8.48;;;1.90;;
72464;SDS011;60471;52.150;4.508;2023-06-04T07:33:35;9.30;;;1.70;;
72464;SDS011;60471;52.150;4.508;2023-06-04T07:36:14;6.53;;;1.60;;
72464;SDS011;60471;52.150;4.508;2023-06-04T07:38:42;10.48;;;1.80;;
72464;SDS011;60471;52.150;4.508;2023-06-04T07:41:09;10.38;;;1.63;;
72464;SDS011;60471;52.150;4.508;2023-06-04T07:43:36;7.25;;;1.60;;
72464;SDS011;60471;52.150;4.508;2023-06-04T07:46:05;6.28;;;1.80;;
72464;SDS011;60471;52.150;4.508;2023-06-04T07:48:32;9.30;;;1.48;;
72464;SDS011;60471;52.150;4.508;2023-06-04T07:50:58;7.28;;;1.48;;
72464;SDS011;60471;52.150;4.508;2023-06-04T07:53:26;7.20;;;1.55;;
72464;SDS011;60471;52.150;4.508;2023-06-04T07:55:54;9.57;;;1.80;;
72464;SDS011;60471;52.150;4.508;2023-06-04T07:58:21;6.97;;;1.30;;
72464;SDS011;60471;52.150;4.508;2023-06-04T08:00:47;8.05;;;1.30;;
72464;SDS011;60471;52.150;4.508;2023-06-04T08:03:13;7.57;;;1.40;;
72464;SDS011;60471;52.150;4.508;2023-06-04T08:05:41;7.25;;;1.60;;
72464;SDS011;60471;52.150;4.508;2023-06-04T08:08:07;7.53;;;1.40;;
72464;SDS011;60471;52.150;4.508;2023-06-04T08:10:33;10.52;;;1.75;;
72464;SDS011;60471;52.150;4.508;2023-06-04T08:13:00;8.35;;;1.52;;
72464;SDS011;60471;52.150;4.508;2023-06-04T08:15:26;9.50;;;1.63;;
72464;SDS011;60471;52.150;4.508;2023-06-04T08:17:52;7.03;;;1.90;;
72464;SDS011;60471;52.150;4.508;2023-06-04T08:20:18;5.85;;;1.60;;
72464;SDS011;60471;52.150;4.508;2023-06-04T08:22:45;8.40;;;1.55;;
72464;SDS011;60471;52.150;4.508;2023-06-04T08:25:11;7.13;;;1.70;;
72464;SDS011;60471;52.150;4.508;2023-06-04T08:27:37;5.55;;;1.45;;
72464;SDS011;60471;52.150;4.508;2023-06-04T08:30:04;9.40;;;1.90;;
72464;SDS011;60471;52.150;4.508;2023-06-04T08:32:31;8.77;;;1.98;;
72464;SDS011;60471;52.150;4.508;2023-06-04T08:34:58;7.82;;;1.58;;
72464;SDS011;60471;52.150;4.508;2023-06-04T08:37:24;9.00;;;2.38;;
72464;SDS011;60471;52.150;4.508;2023-06-04T08:39:51;13.43;;;1.90;;
72464;SDS011;60471;52.150;4.508;2023-06-04T08:42:27;10.32;;;1.80;;
72464;SDS011;60471;52.150;4.508;2023-06-04T08:44:59;8.45;;;1.60;;
72464;SDS011;60471;52.150;4.508;2023-06-04T08:47:26;9.30;;;2.10;;
72464;SDS011;60471;52.150;4.508;2023-06-04T08:50:00;7.72;;;1.70;;
72464;SDS011;60471;52.150;4.508;2023-06-04T08:52:28;8.27;;;1.70;;
72464;SDS011;60471;52.150;4.508;2023-06-04T08:54:54;10.90;;;2.17;;
72464;SDS011;60471;52.150;4.508;2023-06-04T08:57:22;10.68;;;2.10;;
72464;SDS011;60471;52.150;4.508;2023-06-04T08:59:48;7.78;;;1.58;;
72464;SDS011;60471;52.150;4.508;2023-06-04T09:02:16;8.80;;;1.77;;
72464;SDS011;60471;52.150;4.508;2023-06-04T09:04:43;9.07;;;1.95;;
72464;SDS011;60471;52.150;4.508;2023-06-04T09:07:11;7.90;;;1.65;;
72464;SDS011;60471;52.150;4.508;2023-06-04T09:09:40;14.55;;;1.98;;
72464;SDS011;60471;52.150;4.508;2023-06-04T09:12:11;6.00;;;1.30;;
72464;SDS011;60471;52.150;4.508;2023-06-04T09:14:48;12.45;;;2.70;;
72464;SDS011;60471;52.150;4.508;2023-06-04T09:17:22;12.32;;;1.85;;
72464;SDS011;60471;52.150;4.508;2023-06-04T09:19:51;8.68;;;1.83;;
72464;SDS011;60471;52.150;4.508;2023-06-04T09:22:17;8.50;;;1.88;;
72464;SDS011;60471;52.150;4.508;2023-06-04T09:24:44;7.32;;;1.80;;
72464;SDS011;60471;52.150;4.508;2023-06-04T09:27:13;8.85;;;1.65;;
72464;SDS011;60471;52.150;4.508;2023-06-04T09:29:54;6.85;;;1.50;;
72464;SDS011;60471;52.150;4.508;2023-06-04T09:34:53;7.72;;;1.42;;
72464;SDS011;60471;52.150;4.508;2023-06-04T09:37:20;9.25;;;1.50;;
72464;SDS011;60471;52.150;4.508;2023-06-04T09:39:53;6.55;;;1.75;;
72464;SDS011;60471;52.150;4.508;2023-06-04T09:42:23;9.50;;;1.73;;
72464;SDS011;60471;52.150;4.508;2023-06-04T09:44:50;9.70;;;1.83;;
72464;SDS011;60471;52.150;4.508;2023-06-04T09:47:16;9.07;;;2.00;;
72464;SDS011;60471;52.150;4.508;2023-06-04T09:49:43;7.32;;;1.65;;
72464;SDS011;60471;52.150;4.508;2023-06-04T09:52:13;7.03;;;1.90;;
72464;SDS011;60471;52.150;4.508;2023-06-04T09:54:40;11.75;;;1.67;;
72464;SDS011;60471;52.150;4.508;2023-06-04T09:57:17;9.27;;;1.95;;
72464;SDS011;60471;52.150;4.508;2023-06-04T09:59:44;11.18;;;2.33;;
72464;SDS011;60471;52.150;4.508;2023-06-04T10:02:21;8.17;;;1.77;;
72464;SDS011;60471;52.150;4.508;2023-06-04T10:04:49;9.45;;;3.40;;
72464;SDS011;60471;52.150;4.508;2023-06-04T10:07:24;7.40;;;1.65;;
72464;SDS011;60471;52.150;4.508;2023-06-04T10:09:52;10.70;;;1.60;;
72464;SDS011;60471;52.150;4.508;2023-06-04T10:12:23;7.32;;;1.50;;
72464;SDS011;60471;52.150;4.508;2023-06-04T10:14:56;7.53;;;1.63;;
72464;SDS011;60471;52.150;4.508;2023-06-04T10:17:31;8.80;;;1.60;;
72464;SDS011;60471;52.150;4.508;2023-06-04T10:19:59;8.48;;;1.70;;
72464;SDS011;60471;52.150;4.508;2023-06-04T10:22:29;10.32;;;2.00;;
72464;SDS011;60471;52.150;4.508;2023-06-04T10:24:56;6.80;;;1.77;;
72464;SDS011;60471;52.150;4.508;2023-06-04T10:27:26;10.77;;;1.83;;
72464;SDS011;60471;52.150;4.508;2023-06-04T10:29:53;13.60;;;2.28;;
72464;SDS011;60471;52.150;4.508;2023-06-04T10:32:20;11.57;;;2.40;;
72464;SDS011;60471;52.150;4.508;2023-06-04T10:34:46;9.60;;;3.13;;
72464;SDS011;60471;52.150;4.508;2023-06-04T10:37:20;11.68;;;1.63;;
72464;SDS011;60471;52.150;4.508;2023-06-04T10:39:51;6.25;;;1.45;;
72464;SDS011;60471;52.150;4.508;2023-06-04T10:42:19;7.00;;;1.50;;
72464;SDS011;60471;52.150;4.508;2023-06-04T10:44:47;7.32;;;1.65;;
72464;SDS011;60471;52.150;4.508;2023-06-04T10:47:21;6.88;;;1.40;;
72464;SDS011;60471;52.150;4.508;2023-06-04T10:49:52;7.13;;;1.70;;
72464;SDS011;60471;52.150;4.508;2023-06-04T10:52:21;7.57;;;1.55;;
72464;SDS011;60471;52.150;4.508;2023-06-04T10:54:48;9.15;;;1.70;;
72464;SDS011;60471;52.150;4.508;2023-06-04T10:57:15;8.02;;;1.98;;
72464;SDS011;60471;52.150;4.508;2023-06-04T10:59:56;7.47;;;1.75;;
72464;SDS011;60471;52.150;4.508;2023-06-04T11:02:25;7.13;;;1.70;;
72464;SDS011;60471;52.150;4.508;2023-06-04T11:05:05;9.30;;;2.05;;
72464;SDS011;60471;52.150;4.508;2023-06-04T11:07:41;5.10;;;1.42;;
72464;SDS011;60471;52.150;4.508;2023-06-04T11:10:12;11.27;;;1.60;;
72464;SDS011;60471;52.150;4.508;2023-06-04T11:15:15;6.43;;;1.40;;
72464;SDS011;60471;52.150;4.508;2023-06-04T11:17:49;9.85;;;1.85;;
72464;SDS011;60471;52.150;4.508;2023-06-04T11:20:17;10.48;;;2.00;;
72464;SDS011;60471;52.150;4.508;2023-06-04T11:22:51;7.75;;;1.55;;
72464;SDS011;60471;52.150;4.508;2023-06-04T11:25:18;7.45;;;1.67;;
72464;SDS011;60471;52.150;4.508;2023-06-04T11:27:45;6.63;;;1.52;;
72464;SDS011;60471;52.150;4.508;2023-06-04T11:30:11;7.50;;;1.80;;
72464;SDS011;60471;52.150;4.508;2023-06-04T11:32:39;8.63;;;1.75;;
72464;SDS011;60471;52.150;4.508;2023-06-04T11:35:05;6.50;;;1.45;;
72464;SDS011;60471;52.150;4.508;2023-06-04T11:37:33;6.72;;;1.70;;
72464;SDS011;60471;52.150;4.508;2023-06-04T11:40:00;6.40;;;1.73;;
72464;SDS011;60471;52.150;4.508;2023-06-04T11:42:27;6.32;;;1.45;;
72464;SDS011;60471;52.150;4.508;2023-06-04T11:44:55;6.93;;;1.50;;
72464;SDS011;60471;52.150;4.508;2023-06-04T11:47:24;8.55;;;1.60;;
72464;SDS011;60471;52.150;4.508;2023-06-04T11:49:57;9.40;;;1.73;;
72464;SDS011;60471;52.150;4.508;2023-06-04T11:52:25;10.10;;;1.77;;
72464;SDS011;60471;52.150;4.508;2023-06-04T11:54:51;7.13;;;1.48;;
72464;SDS011;60471;52.150;4.508;2023-06-04T11:57:18;6.65;;;1.50;;
72464;SDS011;60471;52.150;4.508;2023-06-04T11:59:44;6.07;;;1.50;;
72464;SDS011;60471;52.150;4.508;2023-06-04T12:02:11;7.85;;;1.75;;
72464;SDS011;60471;52.150;4.508;2023-06-04T12:04:40;8.30;;;1.80;;
72464;SDS011;60471;52.150;4.508;2023-06-04T12:07:06;6.15;;;1.13;;
72464;SDS011;60471;52.150;4.508;2023-06-04T12:09:34;10.27;;;1.58;;
72464;SDS011;60471;52.150;4.508;2023-06-04T12:12:04;10.02;;;1.58;;
72464;SDS011;60471;52.150;4.508;2023-06-04T12:14:33;5.63;;;1.27;;
72464;SDS011;60471;52.150;4.508;2023-06-04T12:17:07;6.28;;;1.67;;
72464;SDS011;60471;52.150;4.508;2023-06-04T12:19:47;6.10;;;1.30;;
72464;SDS011;60471;52.150;4.508;2023-06-04T12:22:16;5.88;;;1.30;;
72464;SDS011;60471;52.150;4.508;2023-06-04T12:24:55;9.55;;;1.40;;
72464;SDS011;60471;52.150;4.508;2023-06-04T12:27:24;8.48;;;1.52;;
72464;SDS011;60471;52.150;4.508;2023-06-04T12:29:55;7.90;;;1.83;;
72464;SDS011;60471;52.150;4.508;2023-06-04T12:32:22;6.35;;;1.40;;
72464;SDS011;60471;52.150;4.508;2023-06-04T12:34:49;6.60;;;1.50;;
72464;SDS011;60471;52.150;4.508;2023-06-04T12:37:15;6.40;;;1.40;;
72464;SDS011;60471;52.150;4.508;2023-06-04T12:39:42;7.53;;;1.75;;
72464;SDS011;60471;52.150;4.508;2023-06-04T12:42:08;6.50;;;1.42;;
72464;SDS011;60471;52.150;4.508;2023-06-04T12:44:35;6.07;;;1.50;;
72464;SDS011;60471;52.150;4.508;2023-06-04T12:47:03;8.48;;;1.65;;
72464;SDS011;60471;52.150;4.508;2023-06-04T12:49:29;5.97;;;1.33;;
72464;SDS011;60471;52.150;4.508;2023-06-04T12:51:56;7.90;;;1.65;;
72464;SDS011;60471;52.150;4.508;2023-06-04T12:54:22;5.80;;;1.33;;
72464;SDS011;60471;52.150;4.508;2023-06-04T12:56:48;5.97;;;1.13;;
72464;SDS011;60471;52.150;4.508;2023-06-04T12:59:15;6.13;;;1.45;;
72464;SDS011;60471;52.150;4.508;2023-06-04T13:01:41;10.05;;;1.98;;
72464;SDS011;60471;52.150;4.508;2023-06-04T13:04:08;7.95;;;1.73;;
72464;SDS011;60471;52.150;4.508;2023-06-04T13:06:34;7.57;;;1.58;;
72464;SDS011;60471;52.150;4.508;2023-06-04T13:09:02;6.70;;;1.58;;
72464;SDS011;60471;52.150;4.508;2023-06-04T13:11:37;5.25;;;1.40;;
72464;SDS011;60471;52.150;4.508;2023-06-04T13:14:09;6.93;;;1.52;;
72464;SDS011;60471;52.150;4.508;2023-06-04T13:16:37;8.43;;;1.88;;
72464;SDS011;60471;52.150;4.508;2023-06-04T13:19:05;8.25;;;1.38;;
72464;SDS011;60471;52.150;4.508;2023-06-04T13:21:32;7.95;;;1.38;;
72464;SDS011;60471;52.150;4.508;2023-06-04T13:24:00;11.85;;;1.60;;
72464;SDS011;60471;52.150;4.508;2023-06-04T13:26:26;7.25;;;1.60;;
72464;SDS011;60471;52.150;4.508;2023-06-04T13:28:53;8.52;;;1.98;;
72464;SDS011;60471;52.150;4.508;2023-06-04T13:31:19;10.15;;;1.80;;
72464;SDS011;60471;52.150;4.508;2023-06-04T13:33:45;9.93;;;1.80;;
72464;SDS011;60471;52.150;4.508;2023-06-04T13:36:11;6.13;;;1.33;;
72464;SDS011;60471;52.150;4.508;2023-06-04T13:38:38;6.78;;;1.50;;
72464;SDS011;60471;52.150;4.508;2023-06-04T13:41:04;6.10;;;1.58;;
72464;SDS011;60471;52.150;4.508;2023-06-04T13:43:30;7.03;;;1.75;;
72464;SDS011;60471;52.150;4.508;2023-06-04T13:45:56;10.77;;;1.80;;
72464;SDS011;60471;52.150;4.508;2023-06-04T13:48:22;7.53;;;1.83;;
72464;SDS011;60471;52.150;4.508;2023-06-04T13:50:49;6.97;;;1.83;;
72464;SDS011;60471;52.150;4.508;2023-06-04T13:53:15;9.85;;;1.90;;
72464;SDS011;60471;52.150;4.508;2023-06-04T13:55:41;10.77;;;2.00;;
72464;SDS011;60471;52.150;4.508;2023-06-04T13:58:07;14.38;;;2.45;;
72464;SDS011;60471;52.150;4.508;2023-06-04T14:00:34;9.32;;;1.98;;
72464;SDS011;60471;52.150;4.508;2023-06-04T14:03:00;9.80;;;2.10;;
72464;SDS011;60471;52.150;4.508;2023-06-04T14:05:27;13.30;;;2.13;;
72464;SDS011;60471;52.150;4.508;2023-06-04T14:07:53;12.18;;;2.30;;
72464;SDS011;60471;52.150;4.508;2023-06-04T14:10:23;14.27;;;2.20;;
72464;SDS011;60471;52.150;4.508;2023-06-04T14:12:50;11.93;;;2.00;;
72464;SDS011;60471;52.150;4.508;2023-06-04T14:15:16;11.90;;;2.42;;
72464;SDS011;60471;52.150;4.508;2023-06-04T14:17:42;12.35;;;2.78;;
72464;SDS011;60471;52.150;4.508;2023-06-04T14:20:09;10.95;;;2.30;;
72464;SDS011;60471;52.150;4.508;2023-06-04T14:22:38;12.35;;;1.90;;
72464;SDS011;60471;52.150;4.508;2023-06-04T14:25:05;9.25;;;2.00;;
72464;SDS011;60471;52.150;4.508;2023-06-04T14:27:33;11.93;;;2.25;;
72464;SDS011;60471;52.150;4.508;2023-06-04T14:30:01;14.88;;;2.28;;
72464;SDS011;60471;52.150;4.508;2023-06-04T14:32:29;8.40;;;2.17;;
72464;SDS011;60471;52.150;4.508;2023-06-04T14:34:55;11.68;;;2.10;;
72464;SDS011;60471;52.150;4.508;2023-06-04T14:37:24;10.13;;;2.20;;
72464;SDS011;60471;52.150;4.508;2023-06-04T14:39:51;12.23;;;2.33;;
72464;SDS011;60471;52.150;4.508;2023-06-04T14:42:17;12.18;;;2.40;;
72464;SDS011;60471;52.150;4.508;2023-06-04T14:44:45;6.80;;;1.90;;
72464;SDS011;60471;52.150;4.508;2023-06-04T14:47:12;9.45;;;2.47;;
72464;SDS011;60471;52.150;4.508;2023-06-04T14:49:38;9.75;;;2.00;;
72464;SDS011;60471;52.150;4.508;2023-06-04T14:52:04;12.32;;;2.28;;
72464;SDS011;60471;52.150;4.508;2023-06-04T14:54:31;10.25;;;2.08;;
72464;SDS011;60471;52.150;4.508;2023-06-04T14:56:57;12.32;;;2.38;;
72464;SDS011;60471;52.150;4.508;2023-06-04T14:59:23;14.35;;;2.25;;